Time;durP1;ratioP1;P1;durP2;ratioP2;P2;SDS_P1;SDS_P2;PMS_P1;PMS_P2;Temp;Humidity;BMP_temperature;BMP_pressure;BME280_temperature;BME280_humidity;BME280_pressure;Samples;Min_cycle;Max_cycle;Signal;HPM_P1;HPM_P2
2022/08/14 00:00:13;;;;;;;14.35;12.98;;;20.60;99.90;;;;;;5051642;28;20136;-47
2022/08/14 00:02:40;;;;;;;15.82;14.15;;;20.40;99.90;;;;;;5002427;28;20064;-47
2022/08/14 00:05:08;;;;;;;16.90;14.77;;;20.50;99.90;;;;;;5016589;28;20435;-48
2022/08/14 00:07:34;;;;;;;16.02;14.05;;;20.50;99.90;;;;;;5048494;28;20124;-49
2022/08/14 00:10:01;;;;;;;16.58;14.73;;;20.50;99.90;;;;;;4999554;28;20131;-48
2022/08/14 00:12:28;;;;;;;14.27;12.85;;;;;;;;;;5051444;28;20481;-48
2022/08/14 00:14:54;;;;;;;14.88;13.38;;;20.40;99.90;;;;;;5051037;28;20029;-48
2022/08/14 00:17:19;;;;;;;14.82;13.05;;;20.00;99.90;;;;;;5033030;28;20138;-48
2022/08/14 00:19:45;;;;;;;16.13;13.93;;;20.00;99.90;;;;;;5006045;28;20030;-46
2022/08/14 00:22:14;;;;;;;15.23;13.77;;;20.00;99.90;;;;;;5048013;28;20029;-47
2022/08/14 00:24:40;;;;;;;15.45;13.82;;;20.00;99.90;;;;;;5051056;28;20033;-46
2022/08/14 00:27:05;;;;;;;16.30;14.60;;;20.00;99.90;;;;;;5042388;28;20048;-48
2022/08/14 00:29:32;;;;;;;15.88;14.38;;;20.10;99.90;;;;;;4989193;28;20157;-46
2022/08/14 00:31:57;;;;;;;15.57;14.00;;;20.10;99.90;;;;;;4989306;28;20466;-48
2022/08/14 00:34:23;;;;;;;15.13;13.52;;;20.10;99.90;;;;;;4989991;28;20038;-46
2022/08/14 00:36:49;;;;;;;17.38;15.63;;;20.10;99.90;;;;;;4989270;28;20109;-49
2022/08/14 00:39:15;;;;;;;16.67;14.98;;;20.30;99.90;;;;;;4989265;28;20172;-48
2022/08/14 00:41:41;;;;;;;19.25;15.82;;;20.30;99.90;;;;;;4989359;28;20525;-48
2022/08/14 00:44:07;;;;;;;18.83;16.95;;;20.30;99.90;;;;;;4963632;28;20043;-46
2022/08/14 00:46:33;;;;;;;18.00;15.95;;;20.30;99.90;;;;;;4978675;28;20034;-49
2022/08/14 00:48:59;;;;;;;18.38;14.80;;;20.30;99.90;;;;;;4951219;28;20214;-48
2022/08/14 00:51:26;;;;;;;19.70;15.60;;;20.20;99.90;;;;;;4991361;28;20375;-46
2022/08/14 00:53:52;;;;;;;17.00;15.30;;;20.20;99.90;;;;;;4993416;28;20494;-47
2022/08/14 00:56:19;;;;;;;18.25;16.38;;;20.20;99.90;;;;;;4993117;28;20073;-46
2022/08/14 00:58:46;;;;;;;18.33;16.42;;;20.20;99.90;;;;;;4960336;28;20061;-47
2022/08/14 01:01:13;;;;;;;17.85;15.95;;;20.20;99.90;;;;;;5026262;28;20052;-45
2022/08/14 01:03:40;;;;;;;17.65;15.88;;;20.20;99.90;;;;;;5034931;28;20072;-48
2022/08/14 01:06:07;;;;;;;18.40;16.50;;;20.20;99.90;;;;;;5035718;28;20120;-47
2022/08/14 01:08:35;;;;;;;18.98;15.57;;;20.30;99.90;;;;;;5034549;28;20083;-48
2022/08/14 01:11:02;;;;;;;17.75;15.93;;;20.40;99.90;;;;;;5034482;28;20726;-47
2022/08/14 01:13:39;;;;;;;17.83;16.02;;;20.40;99.90;;;;;;5035104;28;20425;-48
2022/08/14 01:16:14;;;;;;;18.13;16.30;;;20.40;99.90;;;;;;5035009;28;20033;-47
2022/08/14 01:21:33;;;;;;;18.70;16.70;;;20.30;99.90;;;;;;5030918;28;20040;-46
2022/08/14 01:23:59;;;;;;;18.48;16.58;;;20.30;99.90;;;;;;5018298;28;20939;-47
2022/08/14 01:26:27;;;;;;;16.58;14.85;;;20.30;99.90;;;;;;5034857;28;20489;-46
2022/08/14 01:28:56;;;;;;;17.83;15.95;;;20.10;99.90;;;;;;4972849;28;20050;-45
2022/08/14 01:31:25;;;;;;;20.20;16.20;;;20.00;99.90;;;;;;4972770;28;20759;-46
2022/08/14 01:33:55;;;;;;;20.42;18.42;;;20.00;99.90;;;;;;4972634;28;20043;-48
2022/08/14 01:36:22;;;;;;;21.45;17.30;;;20.00;99.90;;;;;;4972779;28;20035;-47
2022/08/14 01:38:50;;;;;;;20.40;18.15;;;20.00;99.90;;;;;;4972767;28;20046;-47
2022/08/14 01:41:20;;;;;;;22.25;18.73;;;20.00;99.90;;;;;;4972657;28;20129;-47
2022/08/14 01:44:00;;;;;;;23.23;19.50;;;20.00;99.90;;;;;;4972452;28;20047;-46
2022/08/14 01:46:29;;;;;;;19.13;17.15;;;20.00;99.90;;;;;;4972819;28;20115;-49
2022/08/14 01:48:56;;;;;;;20.23;18.08;;;19.90;99.90;;;;;;4972629;28;20458;-48
2022/08/14 01:51:23;;;;;;;21.67;18.83;;;19.90;99.90;;;;;;4972585;28;20500;-46
2022/08/14 01:53:53;;;;;;;21.60;18.08;;;19.90;99.90;;;;;;4973145;28;20121;-49
2022/08/14 01:56:21;;;;;;;21.90;19.58;;;19.80;99.90;;;;;;4972549;28;20030;-49
2022/08/14 01:58:48;;;;;;;30.98;20.33;;;19.90;99.90;;;;;;4976178;28;20063;-49
2022/08/14 02:01:19;;;;;;;19.83;17.88;;;19.90;99.90;;;;;;4982828;28;20099;-46
2022/08/14 02:03:45;;;;;;;22.33;20.02;;;19.90;99.90;;;;;;5032772;28;20087;-46
2022/08/14 02:06:12;;;;;;;22.50;20.20;;;19.90;99.90;;;;;;5033417;28;20042;-46
2022/08/14 02:08:39;;;;;;;19.95;17.95;;;19.90;99.90;;;;;;5033863;28;20481;-49
2022/08/14 02:11:23;;;;;;;21.23;19.00;;;20.00;99.90;;;;;;5033882;28;20044;-46
2022/08/14 02:14:04;;;;;;;21.27;18.95;;;20.00;99.90;;;;;;5034019;28;20030;-48
2022/08/14 02:16:35;;;;;;;21.13;18.92;;;20.00;99.90;;;;;;5033094;28;20497;-47
2022/08/14 02:19:08;;;;;;;22.17;19.60;;;20.00;99.90;;;;;;5033147;28;20043;-48
2022/08/14 02:21:35;;;;;;;23.48;19.70;;;20.00;99.90;;;;;;5033340;28;20036;-48
2022/08/14 02:24:02;;;;;;;22.38;19.67;;;20.00;99.90;;;;;;5033442;28;20056;-45
2022/08/14 02:26:31;;;;;;;23.17;20.52;;;20.00;99.90;;;;;;5033107;28;20040;-47
2022/08/14 02:29:04;;;;;;;23.38;20.75;;;20.00;99.90;;;;;;5033908;28;20029;-46
2022/08/14 02:31:33;;;;;;;25.17;21.10;;;20.00;99.90;;;;;;5033117;28;20120;-48
2022/08/14 02:34:02;;;;;;;28.48;22.42;;;19.90;99.90;;;;;;5032852;28;20041;-46
2022/08/14 02:36:28;;;;;;;25.70;22.77;;;19.90;99.90;;;;;;5033098;28;20076;-46
2022/08/14 02:38:54;;;;;;;25.55;22.80;;;19.90;99.90;;;;;;5033597;28;20040;-47
2022/08/14 02:41:20;;;;;;;29.08;24.48;;;19.90;99.90;;;;;;4981675;28;20136;-45
2022/08/14 02:43:46;;;;;;;26.65;23.45;;;20.00;99.90;;;;;;5032820;28;20084;-44
2022/08/14 02:46:13;;;;;;;28.15;23.35;;;19.90;99.90;;;;;;5033404;28;20037;-45
2022/08/14 02:48:42;;;;;;;23.65;19.23;;;19.80;99.90;;;;;;5033352;28;20036;-47
2022/08/14 02:51:11;;;;;;;36.80;26.95;;;19.70;99.90;;;;;;4970933;28;20041;-48
2022/08/14 02:53:44;;;;;;;30.63;24.48;;;19.70;99.90;;;;;;5032731;28;20026;-46
2022/08/14 02:56:14;;;;;;;25.95;23.10;;;19.70;99.90;;;;;;5032684;28;20041;-48
2022/08/14 02:58:45;;;;;;;25.20;22.23;;;19.70;99.90;;;;;;5033235;28;20060;-49
2022/08/14 03:01:16;;;;;;;24.80;21.75;;;19.70;99.90;;;;;;5032622;28;20096;-47
2022/08/14 03:03:43;;;;;;;25.13;22.10;;;19.70;99.90;;;;;;5032501;28;20080;-47
2022/08/14 03:06:10;;;;;;;29.23;23.13;;;19.70;99.90;;;;;;5032392;28;20021;-46
2022/08/14 03:08:37;;;;;;;28.77;25.15;;;19.80;99.90;;;;;;5033205;28;20033;-48
2022/08/14 03:11:08;;;;;;;26.95;24.10;;;19.80;99.90;;;;;;5032712;28;20025;-47
2022/08/14 03:13:42;;;;;;;27.75;23.48;;;19.80;99.90;;;;;;5031794;28;20037;-49
2022/08/14 03:16:13;;;;;;;24.30;21.67;;;20.00;99.90;;;;;;4982255;28;20037;-45
2022/08/14 03:18:43;;;;;;;26.80;22.67;;;;;;;;;;5029058;28;20029;-45
2022/08/14 03:21:19;;;;;;;24.00;20.65;;;;;;;;;;5032848;28;20465;-46
2022/08/14 03:23:47;;;;;;;26.42;22.95;;;;;;;;;;5032079;28;20385;-48
2022/08/14 03:26:16;;;;;;;23.27;20.50;;;19.30;99.90;;;;;;5031968;28;20041;-47
2022/08/14 03:28:48;;;;;;;22.67;19.85;;;20.00;99.90;;;;;;5032195;28;20080;-49
2022/08/14 03:31:13;;;;;;;;;;;19.90;99.90;;;;;;5032251;28;20493;-46
2022/08/14 03:33:40;;;;;;;23.52;19.88;;;19.70;99.90;;;;;;5031715;28;19916;-46
2022/08/14 03:36:11;;;;;;;24.13;20.73;;;;;;;;;;5032540;28;20515;-48
2022/08/14 03:38:44;;;;;;;23.63;20.25;;;19.60;99.90;;;;;;5031862;28;20041;-49
2022/08/14 03:41:15;;;;;;;27.45;20.48;;;19.60;99.90;;;;;;5017901;28;20060;-45
2022/08/14 03:43:45;;;;;;;25.05;21.27;;;19.40;99.90;;;;;;5031953;28;20071;-47
2022/08/14 03:46:12;;;;;;;24.88;21.08;;;19.40;99.90;;;;;;5032340;28;20036;-48
2022/08/14 03:48:39;;;;;;;27.35;22.55;;;19.50;99.90;;;;;;4996656;28;20412;-49
2022/08/14 03:51:07;;;;;;;23.45;20.50;;;19.40;99.90;;;;;;5032619;28;20038;-47
2022/08/14 03:53:38;;;;;;;24.13;20.90;;;19.40;99.90;;;;;;5031526;28;20389;-48
2022/08/14 03:56:05;;;;;;;21.30;17.58;;;19.50;99.90;;;;;;5031832;28;20061;-47
2022/08/14 03:58:31;;;;;;;22.42;19.77;;;19.30;99.90;;;;;;4953326;28;20111;-47
2022/08/14 04:00:59;;;;;;;22.83;20.20;;;19.30;99.90;;;;;;5031585;28;20037;-48
2022/08/14 04:03:26;;;;;;;22.55;18.50;;;19.40;99.90;;;;;;4996416;28;20053;-48
2022/08/14 04:05:52;;;;;;;23.00;19.48;;;19.40;99.90;;;;;;4916013;28;20040;-47
2022/08/14 04:08:19;;;;;;;22.67;19.10;;;19.40;99.90;;;;;;5031128;28;20053;-46
2022/08/14 04:10:46;;;;;;;22.20;19.83;;;19.40;99.90;;;;;;5031168;28;20045;-47
2022/08/14 04:13:16;;;;;;;23.63;19.95;;;19.50;99.90;;;;;;5013307;28;20125;-46
2022/08/14 04:15:46;;;;;;;22.25;19.27;;;19.50;99.90;;;;;;5031748;28;20040;-46
2022/08/14 04:18:12;;;;;;;21.92;19.52;;;19.40;99.90;;;;;;4996103;28;20524;-47
2022/08/14 04:20:40;;;;;;;24.85;19.80;;;19.60;99.90;;;;;;4983344;28;20517;-49
2022/08/14 04:23:07;;;;;;;22.90;19.75;;;19.60;99.90;;;;;;5028611;28;20116;-49
2022/08/14 04:25:35;;;;;;;22.85;19.88;;;19.50;99.90;;;;;;5016413;28;20041;-48
2022/08/14 04:28:02;;;;;;;22.17;19.17;;;19.40;99.90;;;;;;5031826;28;20076;-48
2022/08/14 04:30:29;;;;;;;21.88;19.58;;;19.30;99.90;;;;;;5031009;28;20034;-47
2022/08/14 04:32:56;;;;;;;23.10;18.63;;;19.30;99.90;;;;;;5030788;28;20097;-48
2022/08/14 04:35:21;;;;;;;22.77;19.23;;;19.30;99.90;;;;;;5031262;28;20508;-47
2022/08/14 04:43:35;;;;;;;25.08;18.38;;;19.30;99.90;;;;;;5027661;28;20043;-50
2022/08/14 04:46:08;;;;;;;28.45;18.63;;;19.30;99.90;;;;;;5028926;28;20358;-47
2022/08/14 04:48:35;;;;;;;21.65;18.15;;;19.40;99.90;;;;;;5031051;28;20064;-49
2022/08/14 04:51:03;;;;;;;19.48;17.40;;;19.40;99.90;;;;;;5030730;28;20458;-49
2022/08/14 04:53:30;;;;;;;21.95;19.08;;;19.30;99.90;;;;;;5030826;28;20025;-46
2022/08/14 04:55:56;;;;;;;20.05;17.92;;;19.40;99.90;;;;;;5031742;28;20039;-47
2022/08/14 04:58:28;;;;;;;21.63;18.65;;;19.40;99.90;;;;;;5030877;28;20053;-46
2022/08/14 05:00:55;;;;;;;;;;;19.50;99.90;;;;;;5032101;28;20097;-45
2022/08/14 05:03:23;;;;;;;33.95;19.23;;;19.50;99.90;;;;;;5030880;28;20015;-48
2022/08/14 05:05:51;;;;;;;25.90;18.60;;;19.60;99.90;;;;;;5030621;28;20384;-47
2022/08/14 05:08:17;;;;;;;22.05;17.40;;;19.70;99.90;;;;;;5027920;28;20507;-47
2022/08/14 05:10:50;;;;;;;23.40;17.73;;;19.70;99.90;;;;;;5031290;28;20124;-47
2022/08/14 05:13:17;;;;;;;24.10;18.77;;;19.70;99.90;;;;;;5030635;28;20441;-48
2022/08/14 05:15:45;;;;;;;20.45;18.20;;;19.80;99.90;;;;;;5027818;28;20025;-49
2022/08/14 05:18:23;;;;;;;22.33;17.30;;;19.90;99.90;;;;;;5031080;28;20044;-48
2022/08/14 05:20:52;;;;;;;21.83;17.48;;;19.90;99.90;;;;;;5024088;28;20065;-46
2022/08/14 05:23:21;;;;;;;21.65;16.20;;;19.90;99.90;;;;;;5030100;28;20029;-47
2022/08/14 05:25:48;;;;;;;18.77;16.63;;;20.00;99.90;;;;;;5026212;28;20474;-48
2022/08/14 05:28:18;;;;;;;19.23;17.13;;;20.00;99.90;;;;;;5030479;28;20026;-49
2022/08/14 05:43:24;;;;;;;18.10;15.27;;;20.50;99.90;;;;;;5159429;27;20383;-47
2022/08/14 05:45:50;;;;;;;19.27;15.93;;;20.50;99.90;;;;;;5143974;27;20037;-48
2022/08/14 05:48:15;;;;;;;15.70;13.77;;;20.60;99.90;;;;;;5139514;27;20023;-48
2022/08/14 05:50:41;;;;;;;18.95;15.00;;;20.40;99.90;;;;;;5144075;27;20019;-45
2022/08/14 05:53:07;;;;;;;17.02;14.25;;;20.50;99.90;;;;;;5129686;27;20519;-47
2022/08/14 05:55:33;;;;;;;14.60;13.10;;;20.60;99.90;;;;;;5144485;27;20097;-45
2022/08/14 05:58:03;;;;;;;13.80;12.40;;;20.60;99.90;;;;;;5138410;27;20058;-46
2022/08/14 06:00:32;;;;;;;14.48;12.75;;;20.60;99.90;;;;;;5137619;27;20058;-45
2022/08/14 06:02:59;;;;;;;18.80;12.63;;;20.60;99.90;;;;;;5144848;27;20071;-46
2022/08/14 06:05:26;;;;;;;15.32;13.23;;;20.60;99.90;;;;;;5145588;27;20433;-49
2022/08/14 06:07:51;;;;;;;13.68;11.90;;;20.80;99.90;;;;;;5138211;27;20092;-46
2022/08/14 06:10:17;;;;;;;13.05;10.48;;;20.90;99.90;;;;;;5102857;27;20039;-49
2022/08/14 06:12:44;;;;;;;14.32;12.43;;;20.80;99.90;;;;;;5137571;27;20035;-48
2022/08/14 06:15:10;;;;;;;12.38;10.88;;;20.80;99.90;;;;;;5141038;27;20042;-48
2022/08/14 06:17:44;;;;;;;13.63;12.05;;;20.90;99.90;;;;;;5143086;27;20023;-46
2022/08/14 06:20:11;;;;;;;15.95;12.35;;;21.00;99.90;;;;;;5109597;27;20039;-48
2022/08/14 06:22:37;;;;;;;14.85;11.32;;;21.10;99.90;;;;;;5140836;27;20466;-48
2022/08/14 06:25:03;;;;;;;15.73;12.45;;;21.00;99.90;;;;;;5142049;27;20023;-48
2022/08/14 06:27:38;;;;;;;12.93;11.50;;;21.00;99.90;;;;;;5058272;27;20031;-45
2022/08/14 06:30:08;;;;;;;15.20;12.75;;;21.00;99.90;;;;;;5083812;28;20036;-48
2022/08/14 06:32:35;;;;;;;13.70;12.18;;;21.20;99.90;;;;;;5050532;28;20056;-47
2022/08/14 06:35:05;;;;;;;13.50;12.10;;;21.20;99.90;;;;;;5081782;28;20039;-47
2022/08/14 06:37:50;;;;;;;14.57;12.15;;;21.00;99.90;;;;;;5049516;28;20036;-45
2022/08/14 06:40:21;;;;;;;14.43;13.02;;;20.90;99.90;;;;;;5082149;28;20617;-45
2022/08/14 06:42:47;;;;;;;13.40;11.10;;;21.00;99.90;;;;;;5028231;28;20048;-49
2022/08/14 06:45:13;;;;;;;13.98;12.07;;;21.20;99.90;;;;;;5070326;28;20441;-45
2022/08/14 06:47:41;;;;;;;12.20;10.85;;;21.30;99.90;;;;;;5068371;28;20022;-48
2022/08/14 06:50:10;;;;;;;12.55;11.18;;;21.40;99.90;;;;;;5052997;28;20508;-48
2022/08/14 06:52:38;;;;;;;11.77;10.52;;;21.60;99.90;;;;;;5052223;28;20045;-47
2022/08/14 06:55:05;;;;;;;10.77;9.70;;;21.60;99.90;;;;;;5069678;28;20043;-45
2022/08/14 06:57:38;;;;;;;11.15;10.05;;;21.80;99.90;;;;;;5019210;28;20370;-49
2022/08/14 07:00:09;;;;;;;11.30;9.15;;;22.10;99.90;;;;;;5072526;28;20032;-47
2022/08/14 07:08:04;;;;;;;12.48;9.18;;;22.00;99.90;;;;;;5105114;28;20039;-47
2022/08/14 07:10:31;;;;;;;9.60;8.68;;;21.90;99.90;;;;;;5108144;28;20027;-47
2022/08/14 07:12:57;;;;;;;11.27;9.65;;;21.80;99.90;;;;;;5105599;28;20252;-48
2022/08/14 07:15:23;;;;;;;8.55;7.65;;;21.60;99.90;;;;;;5092148;28;20504;-46
2022/08/14 07:17:50;;;;;;;11.13;9.98;;;21.60;99.90;;;;;;5105677;28;20039;-46
2022/08/14 07:20:19;;;;;;;9.85;8.50;;;21.70;99.90;;;;;;5074285;28;20084;-47
2022/08/14 07:22:47;;;;;;;10.57;9.48;;;21.70;99.90;;;;;;5109097;28;20080;-46
2022/08/14 07:25:13;;;;;;;9.57;8.32;;;21.80;99.90;;;;;;5059067;28;20042;-47
2022/08/14 07:27:40;;;;;;;10.23;9.27;;;21.80;99.90;;;;;;5107816;28;20390;-45
2022/08/14 07:30:06;;;;;;;9.55;8.55;;;21.80;99.90;;;;;;5109515;28;20027;-46
2022/08/14 07:32:32;;;;;;;10.93;9.88;;;21.90;99.90;;;;;;5025934;28;20067;-47
2022/08/14 07:34:58;;;;;;;9.10;8.20;;;22.00;99.90;;;;;;5104120;28;20032;-49
2022/08/14 07:37:24;;;;;;;11.20;8.73;;;22.10;99.90;;;;;;5108624;28;20039;-47
2022/08/14 07:39:50;;;;;;;10.60;7.75;;;22.10;99.90;;;;;;5061011;28;20054;-45
2022/08/14 07:42:16;;;;;;;7.97;7.18;;;22.30;99.90;;;;;;5109866;28;20046;-48
2022/08/14 07:44:41;;;;;;;9.13;7.93;;;22.40;99.90;;;;;;5103092;28;20032;-49
2022/08/14 07:47:07;;;;;;;8.43;7.70;;;22.60;99.90;;;;;;5103553;28;20114;-47
2022/08/14 07:49:33;;;;;;;10.23;7.95;;;22.60;99.90;;;;;;5106901;28;20027;-46
2022/08/14 07:52:03;;;;;;;9.88;7.85;;;22.40;99.90;;;;;;5078316;28;20464;-48
2022/08/14 07:54:30;;;;;;;9.18;8.13;;;22.50;99.90;;;;;;5102898;28;20111;-47
2022/08/14 07:57:00;;;;;;;10.23;7.50;;;22.80;99.90;;;;;;5107296;28;20127;-46
2022/08/14 07:59:26;;;;;;;10.90;8.07;;;22.80;99.90;;;;;;5103850;28;20088;-49
2022/08/14 08:01:52;;;;;;;9.30;8.38;;;22.80;99.90;;;;;;5103349;28;20386;-45
2022/08/14 08:04:23;;;;;;;9.30;8.40;;;22.70;99.90;;;;;;5103621;28;20081;-47
2022/08/14 08:06:49;;;;;;;9.57;7.57;;;22.80;99.90;;;;;;5106512;28;20035;-48
2022/08/14 08:09:18;;;;;;;9.35;8.35;;;22.80;99.90;;;;;;5099510;28;20541;-47
2022/08/14 08:11:45;;;;;;;9.63;7.43;;;22.80;99.90;;;;;;5101736;28;20040;-47
2022/08/14 08:14:11;;;;;;;10.23;8.32;;;22.70;99.90;;;;;;5049958;28;20044;-47
2022/08/14 08:16:37;;;;;;;9.60;8.38;;;22.70;99.90;;;;;;5103486;28;20028;-49
2022/08/14 08:19:05;;;;;;;12.95;8.63;;;22.80;99.90;;;;;;5100614;28;20088;-48
2022/08/14 08:21:30;;;;;;;8.95;8.05;;;22.90;99.90;;;;;;5052207;28;20090;-47
2022/08/14 08:23:56;;;;;;;9.55;8.35;;;23.00;99.90;;;;;;5104138;28;20490;-47
2022/08/14 08:26:28;;;;;;;9.45;8.05;;;22.80;99.90;;;;;;5104599;28;20076;-48
2022/08/14 08:28:56;;;;;;;9.40;8.00;;;22.90;99.90;;;;;;5101069;28;20028;-49
2022/08/14 08:31:22;;;;;;;10.18;8.85;;;23.00;99.90;;;;;;5108114;28;20054;-46
2022/08/14 08:33:51;;;;;;;9.88;8.88;;;23.10;99.90;;;;;;5007704;28;20044;-46
2022/08/14 08:36:18;;;;;;;9.70;8.20;;;23.10;99.90;;;;;;5104603;28;20038;-47
2022/08/14 08:38:45;;;;;;;11.02;8.30;;;23.30;99.90;;;;;;5109882;28;20380;-45
2022/08/14 08:41:11;;;;;;;9.57;7.95;;;23.40;99.90;;;;;;5106902;28;20043;-48
2022/08/14 08:43:38;;;;;;;11.95;9.35;;;23.30;99.90;;;;;;5127092;27;20049;-46
2022/08/14 08:46:13;;;;;;;8.85;7.55;;;23.50;99.90;;;;;;5124642;27;20383;-46
2022/08/14 08:48:55;;;;;;;10.48;8.32;;;23.60;99.90;;;;;;5123142;27;20031;-46
2022/08/14 08:51:25;;;;;;;13.10;8.15;;;23.70;99.90;;;;;;5130489;27;20043;-46
2022/08/14 08:54:09;;;;;;;9.85;8.85;;;23.50;99.90;;;;;;5124621;27;20034;-47
2022/08/14 08:56:46;;;;;;;10.52;8.98;;;23.70;99.90;;;;;;5124345;27;20405;-48
2022/08/14 08:59:18;;;;;;;9.05;7.70;;;23.70;99.90;;;;;;5122665;27;20488;-46
2022/08/14 09:01:58;;;;;;;10.88;8.18;;;23.50;99.90;;;;;;5101048;27;20042;-45
2022/08/14 09:04:34;;;;;;;10.18;8.55;;;23.50;99.90;;;;;;5058920;27;20043;-46
2022/08/14 09:07:00;;;;;;;9.55;8.48;;;23.60;99.90;;;;;;5123447;27;20390;-46
2022/08/14 09:09:28;;;;;;;9.85;8.43;;;23.70;99.90;;;;;;5128126;27;20027;-47
2022/08/14 09:11:56;;;;;;;10.45;8.40;;;23.60;99.90;;;;;;5126259;27;20035;-48
2022/08/14 09:14:25;;;;;;;9.82;8.05;;;23.60;99.90;;;;;;5121000;27;20114;-46
2022/08/14 09:16:52;;;;;;;9.20;8.15;;;23.50;99.90;;;;;;5121529;27;20027;-48
2022/08/14 09:19:19;;;;;;;9.95;8.65;;;23.50;99.90;;;;;;5127536;27;20484;-47
2022/08/14 09:21:46;;;;;;;9.75;8.73;;;23.70;99.90;;;;;;5125255;27;20042;-47
2022/08/14 09:24:13;;;;;;;9.27;8.38;;;23.50;99.90;;;;;;5122282;27;20419;-46
2022/08/14 09:26:41;;;;;;;8.90;8.00;;;23.40;99.90;;;;;;5111409;28;20408;-48
2022/08/14 09:29:08;;;;;;;10.52;8.23;;;23.30;99.90;;;;;;5121497;28;20042;-45
2022/08/14 09:31:36;;;;;;;10.80;9.07;;;23.40;99.90;;;;;;5125514;28;20031;-46
2022/08/14 09:34:14;;;;;;;12.50;10.35;;;23.50;99.90;;;;;;5118210;28;20046;-49
2022/08/14 09:36:52;;;;;;;8.45;7.07;;;23.60;99.90;;;;;;5121247;28;20066;-48
2022/08/14 09:39:37;;;;;;;7.57;6.53;;;23.70;99.90;;;;;;5128727;28;20027;-47
2022/08/14 09:42:21;;;;;;;8.55;6.53;;;23.50;99.90;;;;;;5114586;28;20044;-46
2022/08/14 09:45:01;;;;;;;7.72;6.88;;;23.50;99.90;;;;;;5104177;28;20027;-47
2022/08/14 09:47:52;;;;;;;8.00;6.45;;;23.50;99.90;;;;;;5098665;28;20032;-47
2022/08/14 09:50:21;;;;;;;7.95;7.03;;;23.60;99.90;;;;;;4989805;28;20053;-48
2022/08/14 09:52:51;;;;;;;10.13;6.55;;;23.60;99.90;;;;;;4952665;28;20366;-46
2022/08/14 09:55:19;;;;;;;8.68;7.03;;;23.50;99.90;;;;;;4988031;28;20119;-46
2022/08/14 09:57:45;;;;;;;7.75;6.35;;;23.50;99.90;;;;;;4988353;28;20060;-49
2022/08/14 10:00:13;;;;;;;8.10;5.95;;;23.50;99.90;;;;;;4981235;28;20461;-48
2022/08/14 10:03:01;;;;;;;8.27;7.30;;;23.50;99.90;;;;;;4929696;28;20031;-49
2022/08/14 10:05:32;;;;;;;7.32;6.57;;;23.60;99.90;;;;;;4993760;28;20038;-48
2022/08/14 10:07:59;;;;;;;8.27;7.47;;;23.90;99.90;;;;;;4986808;28;21273;-48
2022/08/14 10:10:31;;;;;;;7.50;6.78;;;24.30;99.90;;;;;;4987742;28;20081;-47
2022/08/14 10:12:57;;;;;;;9.70;7.13;;;23.90;99.90;;;;;;4986579;28;20103;-48
2022/08/14 10:15:26;;;;;;;10.57;7.00;;;24.00;99.90;;;;;;4989766;28;20057;-47
2022/08/14 10:18:08;;;;;;;8.63;6.70;;;;;;;;;;4997665;28;20254;-46
2022/08/14 10:20:40;;;;;;;;;;;24.20;99.90;;;;;;4988952;28;20078;-46
2022/08/14 10:23:13;;;;;;;7.57;6.72;;;24.60;99.90;;;;;;4987226;28;19918;-46
2022/08/14 10:25:45;;;;;;;8.02;6.80;;;24.50;99.90;;;;;;4992188;28;20034;-46
2022/08/14 10:28:14;;;;;;;;;;;25.00;99.90;;;;;;5086103;28;20096;-46
2022/08/14 10:30:42;;;;;;;8.27;6.65;;;25.10;99.90;;;;;;5103672;28;20366;-47
2022/08/14 10:33:08;;;;;;;6.65;5.97;;;25.00;99.90;;;;;;5106655;28;20044;-49
2022/08/14 10:35:42;;;;;;;7.10;6.40;;;25.20;99.90;;;;;;5107666;28;20036;-49
2022/08/14 10:38:09;;;;;;;8.10;6.50;;;25.20;99.90;;;;;;5096161;28;20387;-48
2022/08/14 10:40:35;;;;;;;8.10;6.18;;;25.00;99.90;;;;;;5105464;28;20119;-47
2022/08/14 10:43:02;;;;;;;7.82;6.03;;;;;;;;;;5104603;28;20044;-49
2022/08/14 10:45:33;;;;;;;7.10;6.38;;;25.30;99.90;;;;;;5113158;28;20088;-47
2022/08/14 10:48:02;;;;;;;7.50;6.25;;;;;;;;;;5113013;28;20032;-47
2022/08/14 10:50:40;;;;;;;7.03;6.28;;;25.60;99.90;;;;;;5107696;28;20031;-48
2022/08/14 10:53:06;;;;;;;6.45;5.75;;;;;;;;;;5107501;28;20044;-49
2022/08/14 10:55:38;;;;;;;6.18;5.43;;;;;;;;;;5112382;28;20047;-48
2022/08/14 10:58:08;;;;;;;6.07;5.55;;;;;;;;;;5109868;28;20115;-48
2022/08/14 11:00:35;;;;;;;6.43;5.28;;;;;;;;;;5109499;28;20059;-49
2022/08/14 11:03:01;;;;;;;6.53;5.93;;;;;;;;;;5059560;28;20043;-48
2022/08/14 11:05:39;;;;;;;6.35;5.47;;;;;;;;;;5108955;28;20390;-47
2022/08/14 11:08:06;;;;;;;5.95;5.38;;;;;;;;;;5108746;28;20040;-46
2022/08/14 11:10:41;;;;;;;6.63;5.20;;;;;;;;;;5111389;28;20455;-47
2022/08/14 11:13:08;;;;;;;6.38;5.70;;;;;;;;;;5072507;28;20051;-47
2022/08/14 11:15:34;;;;;;;7.20;6.53;;;;;;;;;;5112213;28;20038;-46
2022/08/14 11:18:01;;;;;;;6.65;5.63;;;;;;;;;;5108700;28;20027;-47
2022/08/14 11:20:28;;;;;;;8.57;6.40;;;;;;;;;;5112479;28;20101;-47
2022/08/14 11:22:56;;;;;;;8.18;6.38;;;;;;;;;;5108582;28;20597;-46
2022/08/14 11:25:23;;;;;;;7.60;6.05;;;;;;;;;;5110511;28;20383;-46
2022/08/14 11:27:51;;;;;;;8.57;6.00;;;;;;;;;;5107690;28;20429;-48
2022/08/14 11:30:20;;;;;;;6.53;5.13;;;25.90;99.90;;;;;;5111619;28;20042;-48
2022/08/14 11:32:48;;;;;;;7.18;6.07;;;25.90;99.90;;;;;;5111915;28;20521;-47
2022/08/14 11:35:26;;;;;;;7.90;5.60;;;26.00;99.90;;;;;;5110151;28;20039;-47
2022/08/14 11:37:54;;;;;;;6.78;6.18;;;26.30;99.90;;;;;;5059191;28;20090;-46
2022/08/14 11:40:22;;;;;;;6.15;5.43;;;;;;;;;;5111092;28;20031;-47
2022/08/14 11:42:52;;;;;;;7.53;6.07;;;26.70;99.90;;;;;;5112022;28;20051;-49
2022/08/14 11:45:18;;;;;;;8.05;6.13;;;26.40;99.90;;;;;;5109810;28;20460;-47
2022/08/14 11:47:44;;;;;;;6.47;5.88;;;26.40;99.90;;;;;;5110599;28;20114;-49
2022/08/14 11:50:16;;;;;;;7.05;5.63;;;26.50;99.90;;;;;;5090474;28;20063;-50
2022/08/14 11:52:43;;;;;;;7.30;6.50;;;26.70;99.90;;;;;;5111957;28;20050;-47
2022/08/14 11:55:12;;;;;;;5.78;5.20;;;27.50;99.90;;;;;;5110419;28;20040;-47
2022/08/14 11:57:41;;;;;;;6.57;5.97;;;;;;;;;;5111419;28;20078;-46
2022/08/14 12:00:12;;;;;;;8.93;6.43;;;;;;;;;;5111722;28;20474;-48
2022/08/14 12:02:52;;;;;;;7.25;5.88;;;28.60;99.90;;;;;;5110671;28;20080;-48
2022/08/14 12:05:32;;;;;;;6.97;5.47;;;;;;;;;;5109057;28;20034;-46
2022/08/14 12:08:00;;;;;;;7.57;5.18;;;29.00;99.90;;;;;;5075715;28;20061;-50
2022/08/14 12:10:28;;;;;;;6.30;5.70;;;;;;;;;;5111838;28;20027;-49
2022/08/14 12:12:55;;;;;;;6.45;5.22;;;29.40;99.90;;;;;;5108896;28;20039;-49
2022/08/14 12:15:29;;;;;;;5.03;4.63;;;29.30;99.90;;;;;;5112518;28;20034;-49
2022/08/14 12:17:55;;;;;;;5.53;4.80;;;;;;;;;;5107976;28;20023;-49
2022/08/14 12:20:28;;;;;;;7.93;5.22;;;;;;;;;;5110929;28;20023;-50
2022/08/14 12:22:55;;;;;;;5.95;5.35;;;;;;;;;;5109098;28;20355;-47
2022/08/14 12:25:22;;;;;;;5.65;5.00;;;30.10;99.90;;;;;;5111767;28;20390;-46
2022/08/14 12:27:50;;;;;;;5.20;4.70;;;;;;;;;;5109384;28;20031;-48
2022/08/14 12:30:36;;;;;;;5.75;5.00;;;30.40;99.90;;;;;;5106838;28;20451;-48
2022/08/14 12:33:04;;;;;;;6.57;5.00;;;30.30;99.90;;;;;;5108629;28;20064;-47
2022/08/14 12:35:37;;;;;;;4.90;4.40;;;;;;;;;;5110781;28;20024;-47
2022/08/14 12:38:03;;;;;;;5.15;4.40;;;;;;;;;;5107565;28;20034;-49
2022/08/14 12:40:30;;;;;;;5.95;5.35;;;30.50;99.90;;;;;;5074522;28;20040;-47
2022/08/14 12:43:02;;;;;;;5.82;4.57;;;30.20;99.90;;;;;;5072036;28;20709;-48
2022/08/14 12:45:33;;;;;;;5.00;4.50;;;30.20;99.90;;;;;;5074493;28;20040;-49
2022/08/14 12:48:03;;;;;;;5.40;4.85;;;;;;;;;;5111020;28;20042;-50
2022/08/14 12:50:36;;;;;;;4.90;4.40;;;;;;;;;;5051676;28;20083;-47
2022/08/14 12:53:02;;;;;;;5.38;4.80;;;31.10;99.90;;;;;;5109493;28;20656;-47
2022/08/14 12:55:28;;;;;;;5.05;4.28;;;30.90;99.90;;;;;;5111606;28;20031;-47
2022/08/14 12:57:59;;;;;;;4.60;4.20;;;30.70;99.90;;;;;;5109805;28;20039;-48
2022/08/14 13:00:25;;;;;;;4.47;4.07;;;31.20;99.90;;;;;;5110221;28;20555;-49
2022/08/14 13:02:54;;;;;;;5.97;5.15;;;31.30;99.90;;;;;;5106917;28;20039;-47
2022/08/14 13:05:28;;;;;;;5.68;5.07;;;30.60;99.90;;;;;;5111195;28;20031;-47
2022/08/14 13:07:56;;;;;;;5.15;4.30;;;30.10;99.90;;;;;;5109830;28;20036;-50
2022/08/14 13:10:22;;;;;;;5.03;4.07;;;29.70;99.80;;;;;;5108894;28;20027;-49
2022/08/14 13:12:51;;;;;;;5.07;4.57;;;29.90;99.90;;;;;;5056280;28;20059;-47
2022/08/14 13:15:17;;;;;;;8.02;4.72;;;29.90;99.90;;;;;;5074999;28;20036;-48
2022/08/14 13:17:48;;;;;;;5.63;4.82;;;;;;;;;;5103595;28;20513;-47
2022/08/14 13:20:16;;;;;;;5.43;4.90;;;30.40;99.90;;;;;;5108526;28;20031;-49
2022/08/14 13:22:44;;;;;;;4.25;3.80;;;30.80;99.90;;;;;;4998570;28;20049;-49